32.3°F
Current conditions from King Hill
Updated every 5 minutes
 
  Thursday April 24, 2014

Station Historical Data
Daily Summary for April 11, 2012 Units:  Both    English   Metric
« Previous Day
Next Day »
Daily Weekly Monthly Yearly Custom
  High: Low: Average:
Temperature: 51.7 °F /  10.9 °C 34.6 °F /  1.4 °C 40.7 °F /  4.8 °C
Dew Point: 38.0 °F /  3.3 °C 32.2 °F /  0.1 °C 34.7 °F /  1.5 °C
Humidity: 94% 51% 80%
Wind Speed: 6.0mph /  9.7km/h - 1.8mph /  2.9km/h
Wind Gust: 12.0mph /  19.3km/h - -
Wind- - SSW
Pressure: 29.92 in /  1013.1 hPa 29.70 in /  1005.6 hPa -
Precipitation: 0.04 in /  1 mm    
Historical Graphs
 
 
Tabular Data for April 11, 2012
Time Temperature Dew Point Pressure Wind Wind Speed Wind Gust Humidity Daily Rainfall
00:05 37.0 °F /  2.8 °C 34.1 °F /  1.2 °C 29.70in /  1005.6hPa SW 1.0mph /  1.6km/h 3.0mph /  4.8km/h 89% 0.00in /  0mm
00:10 37.0 °F /  2.8 °C 34.1 °F /  1.2 °C 29.70in /  1005.6hPa SW 1.0mph /  1.6km/h 3.0mph /  4.8km/h 89% 0.00in /  0mm
00:15 36.9 °F /  2.7 °C 34.0 °F /  1.1 °C 29.70in /  1005.6hPa SW 1.0mph /  1.6km/h 4.0mph /  6.4km/h 89% 0.00in /  0mm
00:20 36.7 °F /  2.6 °C 33.8 °F /  1 °C 29.70in /  1005.6hPa Calm   4.0mph /  6.4km/h 89% 0.00in /  0mm
00:25 36.5 °F /  2.5 °C 33.6 °F /  0.9 °C 29.71in /  1006hPa Calm   3.0mph /  4.8km/h 89% 0.00in /  0mm
00:30 36.4 °F /  2.4 °C 33.5 °F /  0.8 °C 29.71in /  1006hPa SW 1.0mph /  1.6km/h 3.0mph /  4.8km/h 89% 0.00in /  0mm
00:35 36.5 °F /  2.5 °C 33.6 °F /  0.9 °C 29.71in /  1006hPa SW 1.0mph /  1.6km/h 6.0mph /  9.7km/h 89% 0.00in /  0mm
00:40 36.6 °F /  2.6 °C 33.7 °F /  0.9 °C 29.71in /  1006hPa Calm   6.0mph /  9.7km/h 89% 0.00in /  0mm
00:50 36.8 °F /  2.7 °C 34.1 °F /  1.2 °C 29.71in /  1006hPa SW 1.0mph /  1.6km/h 4.0mph /  6.4km/h 90% 0.01in /  0.3mm
00:55 36.8 °F /  2.7 °C 34.1 °F /  1.2 °C 29.71in /  1006hPa Calm   4.0mph /  6.4km/h 90% 0.01in /  0.3mm
01:00 36.9 °F /  2.7 °C 34.2 °F /  1.2 °C 29.71in /  1006hPa Calm   3.0mph /  4.8km/h 90% 0.01in /  0.3mm
01:05 36.9 °F /  2.7 °C 34.2 °F /  1.2 °C 29.72in /  1006.3hPa SW 1.0mph /  1.6km/h 4.0mph /  6.4km/h 90% 0.01in /  0.3mm
01:15 36.9 °F /  2.7 °C 34.2 °F /  1.2 °C 29.72in /  1006.3hPa SW 1.0mph /  1.6km/h 4.0mph /  6.4km/h 90% 0.01in /  0.3mm
01:25 36.8 °F /  2.7 °C 34.1 °F /  1.2 °C 29.72in /  1006.3hPa Calm   6.0mph /  9.7km/h 90% 0.01in /  0.3mm
01:30 36.8 °F /  2.7 °C 34.4 °F /  1.3 °C 29.72in /  1006.3hPa SW 1.0mph /  1.6km/h 3.0mph /  4.8km/h 91% 0.01in /  0.3mm
01:40 36.8 °F /  2.7 °C 34.4 °F /  1.3 °C 29.72in /  1006.3hPa SSW 3.0mph /  4.8km/h 9.0mph /  14.5km/h 91% 0.01in /  0.3mm
01:45 36.9 °F /  2.7 °C 34.5 °F /  1.4 °C 29.71in /  1006hPa SW 3.0mph /  4.8km/h 9.0mph /  14.5km/h 91% 0.01in /  0.3mm
01:55 36.8 °F /  2.7 °C 34.4 °F /  1.3 °C 29.71in /  1006hPa SW 1.0mph /  1.6km/h 8.0mph /  12.9km/h 91% 0.01in /  0.3mm
02:05 36.7 °F /  2.6 °C 34.3 °F /  1.3 °C 29.71in /  1006hPa Calm   7.0mph /  11.3km/h 91% 0.01in /  0.3mm
02:10 36.7 °F /  2.6 °C 34.3 °F /  1.3 °C 29.71in /  1006hPa SSW 3.0mph /  4.8km/h 6.0mph /  9.7km/h 91% 0.01in /  0.3mm
02:15 36.7 °F /  2.6 °C 34.3 °F /  1.3 °C 29.71in /  1006hPa Calm   7.0mph /  11.3km/h 91% 0.01in /  0.3mm
02:20 36.7 °F /  2.6 °C 34.3 °F /  1.3 °C 29.71in /  1006hPa SSW 2.0mph /  3.2km/h 7.0mph /  11.3km/h 91% 0.01in /  0.3mm
02:25 36.6 °F /  2.6 °C 34.2 °F /  1.2 °C 29.71in /  1006hPa Calm   6.0mph /  9.7km/h 91% 0.01in /  0.3mm
02:30 36.6 °F /  2.6 °C 34.2 °F /  1.2 °C 29.71in /  1006hPa Calm   5.0mph /  8km/h 91% 0.01in /  0.3mm
02:40 36.4 °F /  2.4 °C 34.0 °F /  1.1 °C 29.71in /  1006hPa Calm   4.0mph /  6.4km/h 91% 0.01in /  0.3mm
02:45 36.3 °F /  2.4 °C 33.9 °F /  1.1 °C 29.71in /  1006hPa Calm   4.0mph /  6.4km/h 91% 0.01in /  0.3mm
02:50 36.2 °F /  2.3 °C 33.8 °F /  1 °C 29.71in /  1006hPa Calm     91% 0.01in /  0.3mm
02:55 36.0 °F /  2.2 °C 33.6 °F /  0.9 °C 29.71in /  1006hPa Calm     91% 0.01in /  0.3mm
03:00 35.8 °F /  2.1 °C 33.4 °F /  0.8 °C 29.71in /  1006hPa Calm     91% 0.01in /  0.3mm
03:05 35.6 °F /  2 °C 33.2 °F /  0.7 °C 29.71in /  1006hPa Calm     91% 0.01in /  0.3mm
03:10 35.3 °F /  1.8 °C 32.9 °F /  0.5 °C 29.71in /  1006hPa Calm     91% 0.01in /  0.3mm
03:15 35.1 °F /  1.7 °C 32.7 °F /  0.4 °C 29.71in /  1006hPa Calm   1.0mph /  1.6km/h 91% 0.01in /  0.3mm
03:20 35.2 °F /  1.8 °C 32.8 °F /  0.4 °C 29.71in /  1006hPa Calm   1.0mph /  1.6km/h 91% 0.01in /  0.3mm
03:25 35.0 °F /  1.7 °C 32.6 °F /  0.3 °C 29.71in /  1006hPa Calm     91% 0.01in /  0.3mm
03:30 34.7 °F /  1.5 °C 32.3 °F /  0.2 °C 29.71in /  1006hPa Calm     91% 0.01in /  0.3mm
03:35 34.6 °F /  1.4 °C 32.2 °F /  0.1 °C 29.71in /  1006hPa Calm     91% 0.01in /  0.3mm
03:45 35.0 °F /  1.7 °C 32.6 °F /  0.3 °C 29.71in /  1006hPa Calm     91% 0.01in /  0.3mm
03:50 35.0 °F /  1.7 °C 32.6 °F /  0.3 °C 29.71in /  1006hPa Calm     91% 0.01in /  0.3mm
03:55 35.0 °F /  1.7 °C 32.9 °F /  0.5 °C 29.71in /  1006hPa Calm     92% 0.01in /  0.3mm
04:05 35.5 °F /  1.9 °C 33.4 °F /  0.8 °C 29.71in /  1006hPa Calm   1.0mph /  1.6km/h 92% 0.01in /  0.3mm
04:15 35.8 °F /  2.1 °C 33.7 °F /  0.9 °C 29.71in /  1006hPa SSW 1.0mph /  1.6km/h 4.0mph /  6.4km/h 92% 0.01in /  0.3mm
04:20 35.8 °F /  2.1 °C 33.7 °F /  0.9 °C 29.71in /  1006hPa SSW 1.0mph /  1.6km/h 4.0mph /  6.4km/h 92% 0.01in /  0.3mm
04:25 35.8 °F /  2.1 °C 33.7 °F /  0.9 °C 29.72in /  1006.3hPa Calm   4.0mph /  6.4km/h 92% 0.01in /  0.3mm
04:30 35.9 °F /  2.2 °C 34.1 °F /  1.2 °C 29.72in /  1006.3hPa SSW 1.0mph /  1.6km/h 4.0mph /  6.4km/h 93% 0.01in /  0.3mm
04:35 35.9 °F /  2.2 °C 34.1 °F /  1.2 °C 29.72in /  1006.3hPa Calm   4.0mph /  6.4km/h 93% 0.01in /  0.3mm
04:40 35.9 °F /  2.2 °C 34.1 °F /  1.2 °C 29.72in /  1006.3hPa Calm   3.0mph /  4.8km/h 93% 0.01in /  0.3mm
04:50 35.9 °F /  2.2 °C 34.1 °F /  1.2 °C 29.72in /  1006.3hPa Calm     93% 0.01in /  0.3mm
04:55 35.9 °F /  2.2 °C 34.1 °F /  1.2 °C 29.72in /  1006.3hPa Calm     93% 0.01in /  0.3mm
05:05 35.9 °F /  2.2 °C 34.1 °F /  1.2 °C 29.72in /  1006.3hPa Calm     93% 0.01in /  0.3mm
05:10 35.9 °F /  2.2 °C 34.1 °F /  1.2 °C 29.73in /  1006.7hPa Calm     93% 0.01in /  0.3mm
05:15 35.9 °F /  2.2 °C 34.1 °F /  1.2 °C 29.73in /  1006.7hPa Calm     93% 0.01in /  0.3mm
05:25 36.0 °F /  2.2 °C 34.2 °F /  1.2 °C 29.73in /  1006.7hPa Calm     93% 0.01in /  0.3mm
05:30 36.0 °F /  2.2 °C 34.2 °F /  1.2 °C 29.73in /  1006.7hPa Calm     93% 0.01in /  0.3mm
05:35 35.9 °F /  2.2 °C 34.1 °F /  1.2 °C 29.73in /  1006.7hPa Calm     93% 0.01in /  0.3mm
05:40 35.9 °F /  2.2 °C 34.1 °F /  1.2 °C 29.74in /  1007hPa Calm     93% 0.01in /  0.3mm
05:50 35.9 °F /  2.2 °C 34.1 °F /  1.2 °C 29.74in /  1007hPa Calm     93% 0.01in /  0.3mm
05:55 35.9 °F /  2.2 °C 34.1 °F /  1.2 °C 29.74in /  1007hPa Calm     93% 0.01in /  0.3mm
06:00 35.9 °F /  2.2 °C 34.1 °F /  1.2 °C 29.74in /  1007hPa Calm     93% 0.01in /  0.3mm
06:05 35.9 °F /  2.2 °C 34.1 °F /  1.2 °C 29.74in /  1007hPa Calm     93% 0.01in /  0.3mm
06:15 35.9 °F /  2.2 °C 34.1 °F /  1.2 °C 29.75in /  1007.3hPa Calm     93% 0.02in /  0.5mm
06:20 35.9 °F /  2.2 °C 34.1 °F /  1.2 °C 29.75in /  1007.3hPa Calm     93% 0.02in /  0.5mm
06:25 35.9 °F /  2.2 °C 34.1 °F /  1.2 °C 29.75in /  1007.3hPa Calm     93% 0.02in /  0.5mm
06:30 35.9 °F /  2.2 °C 34.1 °F /  1.2 °C 29.76in /  1007.7hPa Calm     93% 0.02in /  0.5mm
06:35 35.9 °F /  2.2 °C 34.1 °F /  1.2 °C 29.76in /  1007.7hPa Calm     93% 0.02in /  0.5mm
06:40 35.9 °F /  2.2 °C 34.1 °F /  1.2 °C 29.76in /  1007.7hPa Calm     93% 0.02in /  0.5mm
06:45 35.7 °F /  2.1 °C 33.9 °F /  1.1 °C 29.76in /  1007.7hPa Calm     93% 0.02in /  0.5mm
06:55 35.6 °F /  2 °C 33.8 °F /  1 °C 29.76in /  1007.7hPa Calm     93% 0.02in /  0.5mm
07:00 35.7 °F /  2.1 °C 33.9 °F /  1.1 °C 29.77in /  1008hPa Calm     93% 0.02in /  0.5mm
07:05 35.9 °F /  2.2 °C 34.1 °F /  1.2 °C 29.77in /  1008hPa Calm     93% 0.02in /  0.5mm
07:10 36.0 °F /  2.2 °C 34.4 °F /  1.3 °C 29.77in /  1008hPa Calm     94% 0.02in /  0.5mm
07:15 36.2 °F /  2.3 °C 34.6 °F /  1.4 °C 29.77in /  1008hPa Calm     94% 0.02in /  0.5mm
07:20 36.5 °F /  2.5 °C 34.9 °F /  1.6 °C 29.78in /  1008.4hPa Calm     94% 0.02in /  0.5mm
07:25 36.6 °F /  2.6 °C 35.0 °F /  1.7 °C 29.78in /  1008.4hPa Calm     94% 0.02in /  0.5mm
07:30 36.8 °F /  2.7 °C 35.2 °F /  1.8 °C 29.78in /  1008.4hPa Calm     94% 0.02in /  0.5mm
07:35 36.8 °F /  2.7 °C 35.2 °F /  1.8 °C 29.78in /  1008.4hPa Calm     94% 0.02in /  0.5mm
07:40 37.0 °F /  2.8 °C 35.4 °F /  1.9 °C 29.78in /  1008.4hPa Calm     94% 0.02in /  0.5mm
07:45 37.1 °F /  2.8 °C 35.5 °F /  1.9 °C 29.78in /  1008.4hPa Calm     94% 0.02in /  0.5mm
07:50 37.3 °F /  2.9 °C 35.7 °F /  2.1 °C 29.79in /  1008.7hPa Calm     94% 0.02in /  0.5mm
07:55 37.2 °F /  2.9 °C 35.6 °F /  2 °C 29.79in /  1008.7hPa Calm     94% 0.02in /  0.5mm
08:00 37.1 °F /  2.8 °C 35.5 °F /  1.9 °C 29.79in /  1008.7hPa Calm     94% 0.02in /  0.5mm
08:05 37.2 °F /  2.9 °C 35.6 °F /  2 °C 29.79in /  1008.7hPa Calm     94% 0.02in /  0.5mm
08:10 37.3 °F /  2.9 °C 35.7 °F /  2.1 °C 29.79in /  1008.7hPa Calm     94% 0.02in /  0.5mm
08:20 37.4 °F /  3 °C 35.8 °F /  2.1 °C 29.79in /  1008.7hPa Calm     94% 0.02in /  0.5mm
08:25 37.4 °F /  3 °C 35.8 °F /  2.1 °C 29.80in /  1009hPa Calm     94% 0.02in /  0.5mm
08:30 37.6 °F /  3.1 °C 36.0 °F /  2.2 °C 29.80in /  1009hPa Calm     94% 0.02in /  0.5mm
08:35 37.8 °F /  3.2 °C 36.2 °F /  2.3 °C 29.80in /  1009hPa Calm     94% 0.02in /  0.5mm
08:40 37.9 °F /  3.3 °C 36.3 °F /  2.4 °C 29.80in /  1009hPa Calm     94% 0.02in /  0.5mm
08:45 38.1 °F /  3.4 °C 36.5 °F /  2.5 °C 29.80in /  1009hPa Calm     94% 0.02in /  0.5mm
08:50 38.2 °F /  3.4 °C 36.6 °F /  2.6 °C 29.80in /  1009hPa Calm   1.0mph /  1.6km/h 94% 0.02in /  0.5mm
08:55 38.3 °F /  3.5 °C 36.7 °F /  2.6 °C 29.80in /  1009hPa Calm   1.0mph /  1.6km/h 94% 0.02in /  0.5mm
09:00 38.3 °F /  3.5 °C 36.5 °F /  2.5 °C 29.81in /  1009.4hPa Calm     93% 0.02in /  0.5mm
09:05 38.4 °F /  3.6 °C 36.6 °F /  2.6 °C 29.81in /  1009.4hPa Calm     93% 0.02in /  0.5mm
09:10 38.4 °F /  3.6 °C 36.6 °F /  2.6 °C 29.81in /  1009.4hPa Calm     93% 0.02in /  0.5mm
09:15 38.4 °F /  3.6 °C 36.3 °F /  2.4 °C 29.81in /  1009.4hPa Calm     92% 0.02in /  0.5mm
09:25 38.6 °F /  3.7 °C 36.2 °F /  2.3 °C 29.82in /  1009.7hPa Calm     91% 0.02in /  0.5mm
09:30 38.8 °F /  3.8 °C 36.1 °F /  2.3 °C 29.82in /  1009.7hPa Calm     90% 0.02in /  0.5mm
09:35 38.8 °F /  3.8 °C 35.8 °F /  2.1 °C 29.82in /  1009.7hPa Calm     89% 0.02in /  0.5mm
09:40 38.8 °F /  3.8 °C 35.8 °F /  2.1 °C 29.82in /  1009.7hPa Calm     89% 0.02in /  0.5mm
09:50 39.5 °F /  4.2 °C 36.5 °F /  2.5 °C 29.82in /  1009.7hPa Calm     89% 0.02in /  0.5mm
09:55 39.7 °F /  4.3 °C 36.4 °F /  2.4 °C 29.82in /  1009.7hPa Calm     88% 0.02in /  0.5mm
10:05 40.5 °F /  4.7 °C 36.9 °F /  2.7 °C 29.83in /  1010hPa Calm   3.0mph /  4.8km/h 87% 0.02in /  0.5mm
10:10 40.8 °F /  4.9 °C 36.6 °F /  2.6 °C 29.83in /  1010hPa Calm   3.0mph /  4.8km/h 85% 0.02in /  0.5mm
10:15 40.6 °F /  4.8 °C 36.1 °F /  2.3 °C 29.83in /  1010hPa Calm     84% 0.02in /  0.5mm
10:20 40.4 °F /  4.7 °C 36.0 °F /  2.2 °C 29.83in /  1010hPa WNW 2.0mph /  3.2km/h 5.0mph /  8km/h 84% 0.02in /  0.5mm
10:25 39.9 °F /  4.4 °C 35.8 °F /  2.1 °C 29.83in /  1010hPa WNW 3.0mph /  4.8km/h 6.0mph /  9.7km/h 85% 0.02in /  0.5mm
10:30 39.3 °F /  4.1 °C 35.2 °F /  1.8 °C 29.83in /  1010hPa NW 2.0mph /  3.2km/h 7.0mph /  11.3km/h 85% 0.03in /  0.8mm
10:40 39.1 °F /  3.9 °C 35.3 °F /  1.8 °C 29.84in /  1010.4hPa Calm   6.0mph /  9.7km/h 86% 0.03in /  0.8mm
10:45 39.2 °F /  4 °C 35.7 °F /  2.1 °C 29.84in /  1010.4hPa NNW 1.0mph /  1.6km/h 6.0mph /  9.7km/h 87% 0.03in /  0.8mm
10:55 39.7 °F /  4.3 °C 36.2 °F /  2.3 °C 29.83in /  1010hPa NW 2.0mph /  3.2km/h 6.0mph /  9.7km/h 87% 0.03in /  0.8mm
11:05 39.9 °F /  4.4 °C 35.8 °F /  2.1 °C 29.84in /  1010.4hPa Calm   5.0mph /  8km/h 85% 0.03in /  0.8mm
11:10 40.2 °F /  4.6 °C 35.8 °F /  2.1 °C 29.84in /  1010.4hPa Calm   5.0mph /  8km/h 84% 0.03in /  0.8mm
11:15 40.7 °F /  4.8 °C 36.5 °F /  2.5 °C 29.84in /  1010.4hPa Calm     85% 0.03in /  0.8mm
11:25 41.7 °F /  5.4 °C 37.2 °F /  2.9 °C 29.84in /  1010.4hPa Calm   2.0mph /  3.2km/h 84% 0.03in /  0.8mm
11:35 42.1 °F /  5.6 °C 36.7 °F /  2.6 °C 29.84in /  1010.4hPa Calm   1.0mph /  1.6km/h 81% 0.03in /  0.8mm
11:40 42.4 °F /  5.8 °C 37.6 °F /  3.1 °C 29.84in /  1010.4hPa Calm   1.0mph /  1.6km/h 83% 0.03in /  0.8mm
11:45 42.5 °F /  5.8 °C 37.1 °F /  2.8 °C 29.84in /  1010.4hPa Calm   1.0mph /  1.6km/h 81% 0.03in /  0.8mm
11:55 43.3 °F /  6.3 °C 37.2 °F /  2.9 °C 29.84in /  1010.4hPa NW 3.0mph /  4.8km/h 8.0mph /  12.9km/h 79% 0.03in /  0.8mm
12:05 44.5 °F /  6.9 °C 37.4 °F /  3 °C 29.84in /  1010.4hPa NW 1.0mph /  1.6km/h 6.0mph /  9.7km/h 76% 0.03in /  0.8mm
12:10 44.6 °F /  7 °C 37.5 °F /  3.1 °C 29.84in /  1010.4hPa Calm   6.0mph /  9.7km/h 76% 0.03in /  0.8mm
12:15 44.7 °F /  7.1 °C 37.6 °F /  3.1 °C 29.84in /  1010.4hPa Calm   3.0mph /  4.8km/h 76% 0.03in /  0.8mm
12:25 44.0 °F /  6.7 °C 37.3 °F /  2.9 °C 29.83in /  1010hPa NW 2.0mph /  3.2km/h 7.0mph /  11.3km/h 77% 0.03in /  0.8mm
12:30 43.9 °F /  6.6 °C 36.8 °F /  2.7 °C 29.84in /  1010.4hPa Calm   5.0mph /  8km/h 76% 0.03in /  0.8mm
12:35 43.9 °F /  6.6 °C 35.5 °F /  1.9 °C 29.84in /  1010.4hPa NW 1.0mph /  1.6km/h 6.0mph /  9.7km/h 72% 0.03in /  0.8mm
12:40 43.9 °F /  6.6 °C 35.1 °F /  1.7 °C 29.84in /  1010.4hPa Calm   6.0mph /  9.7km/h 71% 0.03in /  0.8mm
12:50 44.4 °F /  6.9 °C 36.6 °F /  2.6 °C 29.83in /  1010hPa WNW 3.0mph /  4.8km/h 6.0mph /  9.7km/h 74% 0.03in /  0.8mm
12:55 44.9 °F /  7.2 °C 36.8 °F /  2.7 °C 29.83in /  1010hPa NW 1.0mph /  1.6km/h 10.0mph /  16.1km/h 73% 0.03in /  0.8mm
13:00 45.0 °F /  7.2 °C 35.4 °F /  1.9 °C 29.83in /  1010hPa NNW 1.0mph /  1.6km/h 10.0mph /  16.1km/h 69% 0.03in /  0.8mm
13:05 45.0 °F /  7.2 °C 34.7 °F /  1.5 °C 29.83in /  1010hPa WNW 3.0mph /  4.8km/h 7.0mph /  11.3km/h 67% 0.03in /  0.8mm
13:15 45.5 °F /  7.5 °C 34.4 °F /  1.3 °C 29.83in /  1010hPa Calm   6.0mph /  9.7km/h 65% 0.03in /  0.8mm
13:20 45.5 °F /  7.5 °C 34.8 °F /  1.6 °C 29.83in /  1010hPa Calm   6.0mph /  9.7km/h 66% 0.03in /  0.8mm
13:25 45.5 °F /  7.5 °C 35.2 °F /  1.8 °C 29.83in /  1010hPa Calm   5.0mph /  8km/h 67% 0.03in /  0.8mm
13:30 45.4 °F /  7.4 °C 34.7 °F /  1.5 °C 29.83in /  1010hPa Calm   5.0mph /  8km/h 66% 0.03in /  0.8mm
13:35 44.7 °F /  7.1 °C 35.5 °F /  1.9 °C 29.83in /  1010hPa Calm   4.0mph /  6.4km/h 70% 0.03in /  0.8mm
13:45 44.3 °F /  6.8 °C 35.5 °F /  1.9 °C 29.83in /  1010hPa Calm     71% 0.03in /  0.8mm
13:50 44.4 °F /  6.9 °C 35.2 °F /  1.8 °C 29.83in /  1010hPa ENE 1.0mph /  1.6km/h 5.0mph /  8km/h 70% 0.03in /  0.8mm
13:55 44.5 °F /  6.9 °C 35.0 °F /  1.7 °C 29.83in /  1010hPa Calm   5.0mph /  8km/h 69% 0.03in /  0.8mm
14:00 44.8 °F /  7.1 °C 34.9 °F /  1.6 °C 29.83in /  1010hPa Calm     68% 0.03in /  0.8mm
14:05 45.0 °F /  7.2 °C 34.3 °F /  1.3 °C 29.83in /  1010hPa Calm     66% 0.03in /  0.8mm
14:10 45.9 °F /  7.7 °C 35.2 °F /  1.8 °C 29.83in /  1010hPa Calm   1.0mph /  1.6km/h 66% 0.03in /  0.8mm
14:15 46.4 °F /  8 °C 34.5 °F /  1.4 °C 29.83in /  1010hPa Calm   3.0mph /  4.8km/h 63% 0.03in /  0.8mm
14:20 46.6 °F /  8.1 °C 35.9 °F /  2.2 °C 29.83in /  1010hPa NE 1.0mph /  1.6km/h 5.0mph /  8km/h 66% 0.03in /  0.8mm
14:30 46.8 °F /  8.2 °C 35.7 °F /  2.1 °C 29.83in /  1010hPa Calm   5.0mph /  8km/h 65% 0.03in /  0.8mm
14:35 47.1 °F /  8.4 °C 36.3 °F /  2.4 °C 29.82in /  1009.7hPa Calm   5.0mph /  8km/h 66% 0.03in /  0.8mm
14:40 47.7 °F /  8.7 °C 36.9 °F /  2.7 °C 29.82in /  1009.7hPa Calm   2.0mph /  3.2km/h 66% 0.03in /  0.8mm
14:45 48.9 °F /  9.4 °C 38.0 °F /  3.3 °C 29.82in /  1009.7hPa NNW 4.0mph /  6.4km/h 7.0mph /  11.3km/h 66% 0.03in /  0.8mm
14:50 49.0 °F /  9.4 °C 36.1 °F /  2.3 °C 29.82in /  1009.7hPa North 3.0mph /  4.8km/h 7.0mph /  11.3km/h 61% 0.03in /  0.8mm
14:55 48.0 °F /  8.9 °C 37.2 °F /  2.9 °C 29.82in /  1009.7hPa North 1.0mph /  1.6km/h 7.0mph /  11.3km/h 66% 0.03in /  0.8mm
15:05 46.1 °F /  7.8 °C 36.1 °F /  2.3 °C 29.82in /  1009.7hPa Calm   6.0mph /  9.7km/h 68% 0.03in /  0.8mm
15:10 45.5 °F /  7.5 °C 35.2 °F /  1.8 °C 29.82in /  1009.7hPa Calm   1.0mph /  1.6km/h 67% 0.04in /  1mm
15:20 45.6 °F /  7.6 °C 35.3 °F /  1.8 °C 29.83in /  1010hPa Calm     67% 0.04in /  1mm
15:25 45.6 °F /  7.6 °C 35.3 °F /  1.8 °C 29.83in /  1010hPa North 1.0mph /  1.6km/h 5.0mph /  8km/h 67% 0.04in /  1mm
15:35 45.4 °F /  7.4 °C 35.1 °F /  1.7 °C 29.83in /  1010hPa Calm   4.0mph /  6.4km/h 67% 0.04in /  1mm
15:40 45.4 °F /  7.4 °C 35.1 °F /  1.7 °C 29.83in /  1010hPa Calm     67% 0.04in /  1mm
15:45 45.6 °F /  7.6 °C 34.9 °F /  1.6 °C 29.83in /  1010hPa Calm     66% 0.04in /  1mm
15:50 46.0 °F /  7.8 °C 35.7 °F /  2.1 °C 29.83in /  1010hPa Calm   4.0mph /  6.4km/h 67% 0.04in /  1mm
15:55 46.6 °F /  8.1 °C 35.5 °F /  1.9 °C 29.83in /  1010hPa Calm   4.0mph /  6.4km/h 65% 0.04in /  1mm
16:00 47.3 °F /  8.5 °C 35.7 °F /  2.1 °C 29.83in /  1010hPa North 2.0mph /  3.2km/h 8.0mph /  12.9km/h 64% 0.04in /  1mm
16:10 47.3 °F /  8.5 °C 35.3 °F /  1.8 °C 29.83in /  1010hPa North 1.0mph /  1.6km/h 9.0mph /  14.5km/h 63% 0.04in /  1mm
16:15 47.1 °F /  8.4 °C 35.2 °F /  1.8 °C 29.83in /  1010hPa Calm   8.0mph /  12.9km/h 63% 0.04in /  1mm
16:20 47.1 °F /  8.4 °C 35.2 °F /  1.8 °C 29.83in /  1010hPa North 2.0mph /  3.2km/h 8.0mph /  12.9km/h 63% 0.04in /  1mm
16:25 48.4 °F /  9.1 °C 36.0 °F /  2.2 °C 29.83in /  1010hPa NNW 3.0mph /  4.8km/h 8.0mph /  12.9km/h 62% 0.04in /  1mm
16:30 49.5 °F /  9.7 °C 36.6 °F /  2.6 °C 29.83in /  1010hPa NW 3.0mph /  4.8km/h 9.0mph /  14.5km/h 61% 0.04in /  1mm
16:45 49.5 °F /  9.7 °C 35.3 °F /  1.8 °C 29.83in /  1010hPa NNW 4.0mph /  6.4km/h 11.0mph /  17.7km/h 58% 0.04in /  1mm
16:50 49.4 °F /  9.7 °C 34.8 °F /  1.6 °C 29.83in /  1010hPa NNW 2.0mph /  3.2km/h 11.0mph /  17.7km/h 57% 0.04in /  1mm
16:55 49.7 °F /  9.8 °C 35.1 °F /  1.7 °C 29.83in /  1010hPa NNW 4.0mph /  6.4km/h 10.0mph /  16.1km/h 57% 0.04in /  1mm
17:00 49.6 °F /  9.8 °C 34.6 °F /  1.4 °C 29.83in /  1010hPa Calm   10.0mph /  16.1km/h 56% 0.04in /  1mm
17:05 50.0 °F /  10 °C 34.9 °F /  1.6 °C 29.84in /  1010.4hPa NNE 1.0mph /  1.6km/h 7.0mph /  11.3km/h 56% 0.04in /  1mm
17:15 50.7 °F /  10.4 °C 33.2 °F /  0.7 °C 29.84in /  1010.4hPa NW 2.0mph /  3.2km/h 8.0mph /  12.9km/h 51% 0.04in /  1mm
17:20 50.9 °F /  10.5 °C 33.9 °F /  1.1 °C 29.84in /  1010.4hPa Calm   8.0mph /  12.9km/h 52% 0.04in /  1mm
17:25 51.3 °F /  10.7 °C 35.7 °F /  2.1 °C 29.84in /  1010.4hPa Calm   7.0mph /  11.3km/h 55% 0.04in /  1mm
17:30 51.4 °F /  10.8 °C 34.8 °F /  1.6 °C 29.84in /  1010.4hPa Calm   4.0mph /  6.4km/h 53% 0.04in /  1mm
17:40 51.7 °F /  10.9 °C 35.1 °F /  1.7 °C 29.84in /  1010.4hPa North 1.0mph /  1.6km/h 5.0mph /  8km/h 53% 0.04in /  1mm
17:45 51.5 °F /  10.8 °C 34.9 °F /  1.6 °C 29.85in /  1010.7hPa North 1.0mph /  1.6km/h 7.0mph /  11.3km/h 53% 0.04in /  1mm
17:50 51.4 °F /  10.8 °C 33.9 °F /  1.1 °C 29.85in /  1010.7hPa NNE 6.0mph /  9.7km/h 12.0mph /  19.3km/h 51% 0.04in /  1mm
17:55 50.7 °F /  10.4 °C 34.2 °F /  1.2 °C 29.85in /  1010.7hPa North 1.0mph /  1.6km/h 12.0mph /  19.3km/h 53% 0.04in /  1mm
18:00 50.1 °F /  10.1 °C 34.1 °F /  1.2 °C 29.85in /  1010.7hPa North 1.0mph /  1.6km/h 9.0mph /  14.5km/h 54% 0.04in /  1mm
18:05 49.7 °F /  9.8 °C 34.2 °F /  1.2 °C 29.85in /  1010.7hPa Calm   9.0mph /  14.5km/h 55% 0.04in /  1mm
18:10 49.8 °F /  9.9 °C 33.4 °F /  0.8 °C 29.85in /  1010.7hPa Calm   9.0mph /  14.5km/h 53% 0.04in /  1mm
18:15 49.7 °F /  9.8 °C 32.8 °F /  0.4 °C 29.85in /  1010.7hPa Calm   4.0mph /  6.4km/h 52% 0.04in /  1mm
18:20 49.4 °F /  9.7 °C 33.5 °F /  0.8 °C 29.85in /  1010.7hPa NNE 1.0mph /  1.6km/h 7.0mph /  11.3km/h 54% 0.04in /  1mm
18:25 49.2 °F /  9.6 °C 33.7 °F /  0.9 °C 29.86in /  1011.1hPa NNE 1.0mph /  1.6km/h 9.0mph /  14.5km/h 55% 0.04in /  1mm
18:30 48.8 °F /  9.3 °C 33.4 °F /  0.8 °C 29.86in /  1011.1hPa Calm   9.0mph /  14.5km/h 55% 0.04in /  1mm
18:35 48.3 °F /  9.1 °C 33.3 °F /  0.7 °C 29.86in /  1011.1hPa Calm   7.0mph /  11.3km/h 56% 0.04in /  1mm
18:45 47.7 °F /  8.7 °C 33.2 °F /  0.7 °C 29.86in /  1011.1hPa Calm   6.0mph /  9.7km/h 57% 0.04in /  1mm
18:50 47.8 °F /  8.8 °C 33.7 °F /  0.9 °C 29.86in /  1011.1hPa North 1.0mph /  1.6km/h 9.0mph /  14.5km/h 58% 0.04in /  1mm
19:00 47.0 °F /  8.3 °C 34.3 °F /  1.3 °C 29.87in /  1011.4hPa NE 3.0mph /  4.8km/h 11.0mph /  17.7km/h 61% 0.04in /  1mm
19:05 46.3 °F /  7.9 °C 34.4 °F /  1.3 °C 29.87in /  1011.4hPa North 1.0mph /  1.6km/h 10.0mph /  16.1km/h 63% 0.04in /  1mm
19:10 45.6 °F /  7.6 °C 34.1 °F /  1.2 °C 29.87in /  1011.4hPa NE 2.0mph /  3.2km/h 7.0mph /  11.3km/h 64% 0.04in /  1mm
19:15 45.0 °F /  7.2 °C 33.9 °F /  1.1 °C 29.88in /  1011.7hPa NE 1.0mph /  1.6km/h 7.0mph /  11.3km/h 65% 0.04in /  1mm
19:20 44.4 °F /  6.9 °C 34.1 °F /  1.2 °C 29.88in /  1011.7hPa Calm   7.0mph /  11.3km/h 67% 0.04in /  1mm
19:25 43.9 °F /  6.6 °C 34.0 °F /  1.1 °C 29.88in /  1011.7hPa Calm   7.0mph /  11.3km/h 68% 0.04in /  1mm
19:30 43.4 °F /  6.3 °C 33.6 °F /  0.9 °C 29.88in /  1011.7hPa North 1.0mph /  1.6km/h 10.0mph /  16.1km/h 68% 0.04in /  1mm
19:35 43.1 °F /  6.2 °C 33.3 °F /  0.7 °C 29.88in /  1011.7hPa Calm   10.0mph /  16.1km/h 68% 0.04in /  1mm
19:45 42.3 °F /  5.7 °C 33.6 °F /  0.9 °C 29.88in /  1011.7hPa Calm     71% 0.04in /  1mm
19:50 42.0 °F /  5.6 °C 33.6 °F /  0.9 °C 29.88in /  1011.7hPa Calm     72% 0.04in /  1mm
19:55 41.7 °F /  5.4 °C 33.7 °F /  0.9 °C 29.89in /  1012.1hPa Calm     73% 0.04in /  1mm
20:00 41.4 °F /  5.2 °C 33.7 °F /  0.9 °C 29.89in /  1012.1hPa Calm     74% 0.04in /  1mm
20:05 41.2 °F /  5.1 °C 33.9 °F /  1.1 °C 29.89in /  1012.1hPa Calm   1.0mph /  1.6km/h 75% 0.04in /  1mm
20:10 41.1 °F /  5.1 °C 33.8 °F /  1 °C 29.89in /  1012.1hPa Calm   1.0mph /  1.6km/h 75% 0.04in /  1mm
20:15 40.9 °F /  4.9 °C 33.9 °F /  1.1 °C 29.89in /  1012.1hPa Calm     76% 0.04in /  1mm
20:25 40.8 °F /  4.9 °C 34.2 °F /  1.2 °C 29.90in /  1012.4hPa Calm     77% 0.04in /  1mm
20:35 40.4 °F /  4.7 °C 34.1 °F /  1.2 °C 29.90in /  1012.4hPa Calm     78% 0.04in /  1mm
20:40 40.2 °F /  4.6 °C 33.9 °F /  1.1 °C 29.90in /  1012.4hPa Calm     78% 0.04in /  1mm
20:50 39.7 °F /  4.3 °C 33.7 °F /  0.9 °C 29.90in /  1012.4hPa Calm   1.0mph /  1.6km/h 79% 0.04in /  1mm
20:55 39.3 °F /  4.1 °C 33.3 °F /  0.7 °C 29.90in /  1012.4hPa Calm     79% 0.04in /  1mm
21:00 39.1 °F /  3.9 °C 33.8 °F /  1 °C 29.90in /  1012.4hPa Calm     81% 0.04in /  1mm
21:05 38.9 °F /  3.8 °C 33.6 °F /  0.9 °C 29.91in /  1012.8hPa Calm     81% 0.04in /  1mm
21:10 38.8 °F /  3.8 °C 33.8 °F /  1 °C 29.91in /  1012.8hPa Calm     82% 0.04in /  1mm
21:15 38.7 °F /  3.7 °C 33.7 °F /  0.9 °C 29.91in /  1012.8hPa Calm     82% 0.04in /  1mm
21:20 38.6 °F /  3.7 °C 33.6 °F /  0.9 °C 29.91in /  1012.8hPa Calm     82% 0.04in /  1mm
21:25 38.6 °F /  3.7 °C 33.9 °F /  1.1 °C 29.91in /  1012.8hPa Calm     83% 0.04in /  1mm
21:30 38.5 °F /  3.6 °C 34.1 °F /  1.2 °C 29.91in /  1012.8hPa Calm     84% 0.04in /  1mm
21:35 38.6 °F /  3.7 °C 34.2 °F /  1.2 °C 29.91in /  1012.8hPa Calm     84% 0.04in /  1mm
21:40 38.7 °F /  3.7 °C 34.3 °F /  1.3 °C 29.91in /  1012.8hPa Calm     84% 0.04in /  1mm
21:45 38.8 °F /  3.8 °C 34.4 °F /  1.3 °C 29.91in /  1012.8hPa Calm     84% 0.04in /  1mm
21:55 38.7 °F /  3.7 °C 35.7 °F /  2.1 °C 29.91in /  1012.8hPa Calm     89% 0.04in /  1mm
22:00 38.6 °F /  3.7 °C 34.2 °F /  1.2 °C 29.91in /  1012.8hPa Calm     84% 0.04in /  1mm
22:05 38.5 °F /  3.6 °C 34.1 °F /  1.2 °C 29.91in /  1012.8hPa Calm     84% 0.04in /  1mm
22:10 38.4 °F /  3.6 °C 33.7 °F /  0.9 °C 29.91in /  1012.8hPa Calm     83% 0.04in /  1mm
22:15 38.3 °F /  3.5 °C 33.6 °F /  0.9 °C 29.92in /  1013.1hPa Calm     83% 0.04in /  1mm
22:20 38.3 °F /  3.5 °C 33.6 °F /  0.9 °C 29.92in /  1013.1hPa Calm   4.0mph /  6.4km/h 83% 0.04in /  1mm
22:30 38.2 °F /  3.4 °C 33.5 °F /  0.8 °C 29.92in /  1013.1hPa Calm     83% 0.04in /  1mm
22:35 38.4 °F /  3.6 °C 33.7 °F /  0.9 °C 29.92in /  1013.1hPa Calm     83% 0.04in /  1mm
22:45 38.4 °F /  3.6 °C 33.7 °F /  0.9 °C 29.92in /  1013.1hPa Calm     83% 0.04in /  1mm
22:50 38.3 °F /  3.5 °C 33.6 °F /  0.9 °C 29.92in /  1013.1hPa Calm     83% 0.04in /  1mm
22:55 38.1 °F /  3.4 °C 33.4 °F /  0.8 °C 29.92in /  1013.1hPa Calm     83% 0.04in /  1mm
23:00 38.0 °F /  3.3 °C 33.6 °F /  0.9 °C 29.92in /  1013.1hPa Calm     84% 0.04in /  1mm
23:05 37.8 °F /  3.2 °C 33.4 °F /  0.8 °C 29.92in /  1013.1hPa Calm     84% 0.04in /  1mm
23:10 37.7 °F /  3.2 °C 33.3 °F /  0.7 °C 29.92in /  1013.1hPa Calm     84% 0.04in /  1mm
23:15 37.8 °F /  3.2 °C 33.7 °F /  0.9 °C 29.92in /  1013.1hPa Calm   1.0mph /  1.6km/h 85% 0.04in /  1mm
23:20 37.9 °F /  3.3 °C 33.8 °F /  1 °C 29.92in /  1013.1hPa Calm   1.0mph /  1.6km/h 85% 0.04in /  1mm
23:25 37.9 °F /  3.3 °C 33.8 °F /  1 °C 29.92in /  1013.1hPa Calm     85% 0.04in /  1mm
23:30 38.1 °F /  3.4 °C 34.0 °F /  1.1 °C 29.92in /  1013.1hPa Calm     85% 0.04in /  1mm
23:35 38.3 °F /  3.5 °C 34.2 °F /  1.2 °C 29.92in /  1013.1hPa Calm     85% 0.04in /  1mm
23:45 38.6 °F /  3.7 °C 34.5 °F /  1.4 °C 29.92in /  1013.1hPa Calm     85% 0.04in /  1mm
23:50 38.7 °F /  3.7 °C 34.6 °F /  1.4 °C 29.92in /  1013.1hPa North 1.0mph /  1.6km/h 5.0mph /  8km/h 85% 0.04in /  1mm
23:55 38.8 °F /  3.8 °C 34.4 °F /  1.3 °C 29.92in /  1013.1hPa Calm   5.0mph /  8km/h 84% 0.04in /  1mm
Westford Weather
Compliments of Weather Underground

 
 
Current Radar Loop:

Copyright © WestfordWeather.net 2007-2014. All rights reserved.